Time;durP1;ratioP1;P1;durP2;ratioP2;P2;SDS_P1;SDS_P2;PMS_P1;PMS_P2;Temp;Humidity;BMP_temperature;BMP_pressure;BME280_temperature;BME280_humidity;BME280_pressure;Samples;Min_cycle;Max_cycle;Signal;HPM_P1;HPM_P2
2023/08/19 00:01:20;;;;;;;6.43;3.80;;;21.90;98.00;;;;;;5053562;28;20519;-69
2023/08/19 00:03:49;;;;;;;5.20;3.53;;;22.00;98.00;;;;;;5053760;28;20449;-69
2023/08/19 00:06:33;;;;;;;9.93;3.87;;;22.10;98.00;;;;;;5053511;28;20485;-69
2023/08/19 00:09:01;;;;;;;8.13;4.00;;;21.90;98.00;;;;;;5053417;28;20457;-69
2023/08/19 00:11:31;;;;;;;9.17;4.23;;;21.80;98.00;;;;;;5053437;28;20515;-69
2023/08/19 00:13:58;;;;;;;6.17;3.93;;;21.70;98.00;;;;;;5053525;28;20472;-69
2023/08/19 00:16:26;;;;;;;8.23;4.27;;;21.50;98.00;;;;;;5052384;28;20446;-69
2023/08/19 00:18:54;;;;;;;10.37;4.03;;;21.40;98.00;;;;;;5053533;28;20457;-69
2023/08/19 00:21:21;;;;;;;7.20;3.50;;;21.30;98.00;;;;;;5052294;28;20556;-69
2023/08/19 00:23:49;;;;;;;9.07;3.77;;;21.30;98.00;;;;;;5053557;28;20475;-69
2023/08/19 00:26:17;;;;;;;8.17;4.27;;;21.20;98.00;;;;;;5052859;28;20458;-68
2023/08/19 00:28:44;;;;;;;6.53;3.60;;;21.20;98.00;;;;;;5053229;28;20452;-69
2023/08/19 00:31:11;;;;;;;6.20;3.80;;;21.20;98.00;;;;;;5053234;28;20446;-69
2023/08/19 00:33:38;;;;;;;6.43;4.03;;;21.30;98.00;;;;;;5053206;28;20991;-70
2023/08/19 00:36:07;;;;;;;7.50;4.20;;;21.30;98.00;;;;;;5053217;28;20580;-69
2023/08/19 00:38:34;;;;;;;6.90;4.27;;;21.20;98.00;;;;;;5053014;28;20465;-70
2023/08/19 00:41:03;;;;;;;7.70;3.83;;;21.10;98.00;;;;;;5051725;28;20450;-69
2023/08/19 00:43:35;;;;;;;5.60;3.70;;;21.00;98.00;;;;;;5052984;28;20458;-69
2023/08/19 00:46:03;;;;;;;7.53;3.93;;;20.90;98.00;;;;;;5052872;28;20462;-70
2023/08/19 00:48:30;;;;;;;7.20;3.90;;;20.90;98.00;;;;;;5052718;28;20924;-69
2023/08/19 00:50:58;;;;;;;6.97;3.87;;;20.90;98.00;;;;;;5052690;28;20892;-69
2023/08/19 00:53:27;;;;;;;6.47;4.10;;;20.70;98.00;;;;;;5052738;28;20934;-69
2023/08/19 00:55:54;;;;;;;5.30;3.57;;;20.70;98.00;;;;;;5052554;28;20445;-69
2023/08/19 00:58:22;;;;;;;6.07;3.87;;;20.70;98.00;;;;;;5052355;28;20462;-69
2023/08/19 01:00:49;;;;;;;5.97;3.67;;;20.80;98.00;;;;;;5052527;28;20457;-69
2023/08/19 01:03:16;;;;;;;9.73;3.73;;;20.90;98.00;;;;;;5052442;28;20967;-69
2023/08/19 01:05:52;;;;;;;5.83;3.80;;;21.00;98.00;;;;;;5052436;28;20454;-69
2023/08/19 01:08:25;;;;;;;5.90;3.93;;;20.90;98.00;;;;;;5052310;28;20548;-69
2023/08/19 01:11:02;;;;;;;5.70;3.63;;;21.00;98.00;;;;;;5052386;28;20489;-69
2023/08/19 01:13:38;;;;;;;8.43;4.20;;;21.00;98.00;;;;;;5052144;28;20489;-69
2023/08/19 01:16:11;;;;;;;6.40;3.77;;;21.00;98.00;;;;;;5052335;28;20464;-69
2023/08/19 01:18:40;;;;;;;6.10;3.90;;;20.90;98.00;;;;;;5052255;28;20936;-69
2023/08/19 01:21:09;;;;;;;6.67;4.00;;;20.90;98.00;;;;;;5051541;28;20453;-69
2023/08/19 01:23:41;;;;;;;7.43;3.73;;;20.70;98.00;;;;;;5052131;28;20454;-69
2023/08/19 01:26:10;;;;;;;6.27;3.97;;;20.50;98.00;;;;;;5052093;28;20469;-69
2023/08/19 01:28:37;;;;;;;5.80;3.80;;;20.40;98.00;;;;;;5052051;28;20446;-69
2023/08/19 01:31:04;;;;;;;6.13;4.20;;;20.50;98.00;;;;;;5052228;28;20454;-69
2023/08/19 01:33:33;;;;;;;5.93;4.03;;;20.40;98.00;;;;;;5052415;28;20481;-69
2023/08/19 01:36:12;;;;;;;6.90;4.20;;;20.40;98.00;;;;;;5050769;28;20446;-69
2023/08/19 01:38:45;;;;;;;6.90;4.33;;;20.30;98.00;;;;;;5051818;28;20482;-69
2023/08/19 01:41:16;;;;;;;7.03;4.00;;;20.30;98.00;;;;;;5051716;28;20955;-69
2023/08/19 01:43:44;;;;;;;8.17;4.30;;;20.30;98.00;;;;;;5051806;28;20450;-69
2023/08/19 01:46:12;;;;;;;10.40;4.50;;;20.40;98.00;;;;;;5033846;28;20453;-69
2023/08/19 01:48:39;;;;;;;6.23;3.80;;;20.50;98.00;;;;;;5051701;28;20915;-69
2023/08/19 01:51:06;;;;;;;5.30;3.50;;;20.40;98.00;;;;;;5051325;28;20454;-69
2023/08/19 01:53:34;;;;;;;6.73;3.57;;;20.50;98.00;;;;;;5051608;28;21018;-69
2023/08/19 01:56:01;;;;;;;6.17;3.90;;;20.40;98.00;;;;;;5051425;28;20445;-69
2023/08/19 01:58:29;;;;;;;5.90;3.80;;;20.40;98.00;;;;;;5051602;28;20789;-69
2023/08/19 02:00:56;;;;;;;8.47;4.10;;;20.30;98.00;;;;;;5051498;28;20463;-70
2023/08/19 02:03:23;;;;;;;6.13;3.73;;;20.30;98.00;;;;;;5051722;28;20516;-69
2023/08/19 02:05:50;;;;;;;6.07;3.90;;;20.60;98.00;;;;;;5051741;28;20450;-69
2023/08/19 02:08:17;;;;;;;7.73;3.87;;;20.60;98.00;;;;;;5049732;28;20963;-69
2023/08/19 02:10:45;;;;;;;6.87;4.10;;;20.50;98.00;;;;;;5051421;28;20453;-69
2023/08/19 02:13:12;;;;;;;5.83;4.20;;;20.30;98.00;;;;;;5051324;28;20489;-70
2023/08/19 02:15:41;;;;;;;7.40;3.63;;;20.20;98.00;;;;;;5051557;28;20477;-69
2023/08/19 02:18:08;;;;;;;7.80;4.30;;;20.20;98.00;;;;;;5051340;28;20446;-69
2023/08/19 02:20:35;;;;;;;7.20;3.87;;;20.10;98.00;;;;;;5051583;28;20454;-69
2023/08/19 02:23:03;;;;;;;9.07;4.50;;;20.10;98.00;;;;;;5050292;28;20460;-69
2023/08/19 02:25:30;;;;;;;8.53;3.90;;;20.10;98.00;;;;;;5051612;28;20511;-69
2023/08/19 02:27:57;;;;;;;6.73;3.73;;;20.10;98.00;;;;;;5051796;28;20806;-69
2023/08/19 02:30:24;;;;;;;6.57;4.00;;;20.10;98.00;;;;;;5050179;28;20453;-69
2023/08/19 02:32:53;;;;;;;6.30;4.00;;;20.10;98.00;;;;;;5052714;28;21002;-69
2023/08/19 02:35:20;;;;;;;6.07;4.10;;;20.10;98.00;;;;;;5053939;28;20935;-69
2023/08/19 02:37:47;;;;;;;9.10;4.40;;;20.10;98.00;;;;;;5055155;28;20489;-69
2023/08/19 02:40:14;;;;;;;10.50;4.07;;;20.00;98.00;;;;;;5055043;28;20469;-69
2023/08/19 02:42:41;;;;;;;6.10;4.00;;;20.00;98.00;;;;;;5055180;28;20454;-69
2023/08/19 02:45:09;;;;;;;7.20;4.27;;;20.10;98.00;;;;;;5055302;28;20962;-69
2023/08/19 02:47:37;;;;;;;6.50;4.10;;;19.90;98.00;;;;;;5054915;28;20457;-69
2023/08/19 02:50:07;;;;;;;8.10;4.37;;;19.90;98.00;;;;;;5053634;28;20442;-69
2023/08/19 02:52:36;;;;;;;7.23;4.40;;;19.80;98.00;;;;;;5055044;28;20497;-69
2023/08/19 02:55:03;;;;;;;5.97;3.53;;;19.80;98.00;;;;;;5054998;28;21076;-69
2023/08/19 02:57:30;;;;;;;8.00;4.30;;;19.80;98.00;;;;;;5054542;28;20511;-69
2023/08/19 02:59:57;;;;;;;7.03;4.17;;;19.80;98.00;;;;;;5054874;28;20482;-69
2023/08/19 03:02:24;;;;;;;8.23;4.00;;;19.80;98.00;;;;;;5053506;28;20453;-69
2023/08/19 03:04:52;;;;;;;5.40;3.70;;;19.80;98.00;;;;;;5054736;28;20453;-69
2023/08/19 03:07:20;;;;;;;8.30;4.00;;;20.00;98.00;;;;;;5054262;28;20457;-69
2023/08/19 03:09:47;;;;;;;10.63;4.00;;;20.00;98.00;;;;;;5054353;28;20457;-69
2023/08/19 03:12:14;;;;;;;7.40;3.90;;;20.00;98.00;;;;;;5054103;28;20472;-69
2023/08/19 03:14:41;;;;;;;6.97;4.10;;;20.00;98.00;;;;;;5054489;28;20449;-69
2023/08/19 03:17:09;;;;;;;7.10;4.30;;;20.00;98.00;;;;;;5054084;28;20476;-69
2023/08/19 03:19:36;;;;;;;7.50;3.80;;;20.00;98.00;;;;;;5054276;28;20503;-69
2023/08/19 03:22:03;;;;;;;7.57;4.10;;;19.90;98.00;;;;;;5053921;28;20963;-69
2023/08/19 03:24:32;;;;;;;10.00;4.13;;;19.80;98.00;;;;;;5053200;28;20462;-69
2023/08/19 03:26:59;;;;;;;6.73;3.93;;;19.70;98.00;;;;;;5054406;28;20450;-69
2023/08/19 03:29:26;;;;;;;8.03;4.50;;;19.70;98.00;;;;;;5053089;28;20465;-69
2023/08/19 03:31:53;;;;;;;6.97;4.00;;;19.60;98.00;;;;;;5054176;28;20820;-69
2023/08/19 03:34:20;;;;;;;8.50;4.10;;;19.60;98.00;;;;;;5054035;28;20478;-69
2023/08/19 03:36:48;;;;;;;6.37;4.00;;;19.50;98.00;;;;;;5053999;28;20450;-69
2023/08/19 03:39:15;;;;;;;6.60;3.90;;;19.50;98.00;;;;;;5053805;28;20465;-69
2023/08/19 03:41:44;;;;;;;6.93;3.80;;;19.40;98.00;;;;;;5053935;28;20497;-69
2023/08/19 03:44:12;;;;;;;10.23;4.07;;;19.40;98.00;;;;;;5052032;28;20539;-69
2023/08/19 03:46:40;;;;;;;7.67;3.90;;;19.50;98.00;;;;;;5053920;28;20576;-69
2023/08/19 03:49:07;;;;;;;7.77;4.13;;;19.50;98.00;;;;;;5053860;28;20450;-69
2023/08/19 03:51:34;;;;;;;5.80;3.70;;;19.50;98.00;;;;;;5052625;28;20449;-69
2023/08/19 03:54:01;;;;;;;7.83;4.30;;;19.40;98.00;;;;;;5053801;28;20555;-69
2023/08/19 03:56:29;;;;;;;7.23;4.23;;;19.50;98.00;;;;;;5053801;28;20458;-69
2023/08/19 03:58:57;;;;;;;7.87;4.10;;;19.40;98.00;;;;;;5053823;28;20528;-69
2023/08/19 04:01:25;;;;;;;4.97;3.47;;;19.40;98.00;;;;;;5053676;28;20449;-69
2023/08/19 04:03:52;;;;;;;7.67;4.10;;;19.40;98.00;;;;;;5052710;28;20532;-69
2023/08/19 04:06:19;;;;;;;7.27;3.87;;;19.50;98.00;;;;;;5053674;28;20453;-69
2023/08/19 04:08:46;;;;;;;8.60;4.30;;;19.50;98.00;;;;;;5053259;28;20449;-70
2023/08/19 04:11:13;;;;;;;8.97;4.20;;;19.30;98.00;;;;;;5052513;28;20454;-69
2023/08/19 04:13:40;;;;;;;7.33;4.10;;;19.40;98.00;;;;;;5053682;28;20493;-69
2023/08/19 04:16:08;;;;;;;4.90;3.53;;;19.30;98.00;;;;;;5053915;28;20453;-69
2023/08/19 04:18:35;;;;;;;8.30;4.27;;;19.30;98.00;;;;;;5053851;28;20529;-69
2023/08/19 04:21:06;;;;;;;11.30;4.40;;;19.20;98.00;;;;;;5053527;28;20519;-69
2023/08/19 04:23:33;;;;;;;6.13;4.13;;;19.10;98.00;;;;;;5052033;28;20442;-69
2023/08/19 04:26:00;;;;;;;7.30;4.37;;;19.10;98.00;;;;;;5051886;28;20481;-69
2023/08/19 04:28:27;;;;;;;6.50;4.10;;;19.20;98.00;;;;;;5053000;28;20453;-69
2023/08/19 04:31:02;;;;;;;7.67;4.13;;;19.20;98.00;;;;;;5052947;28;20446;-69
2023/08/19 04:33:31;;;;;;;5.87;3.63;;;19.30;98.00;;;;;;5052654;28;20480;-69
2023/08/19 04:35:58;;;;;;;6.10;3.97;;;19.30;98.00;;;;;;5053081;28;20461;-69
2023/08/19 04:38:26;;;;;;;6.70;4.03;;;19.30;98.00;;;;;;5052703;28;20983;-69
2023/08/19 04:40:53;;;;;;;7.47;4.40;;;19.10;98.00;;;;;;5053055;28;20446;-69
2023/08/19 04:43:20;;;;;;;5.80;3.83;;;19.10;98.00;;;;;;5052846;28;20455;-69
2023/08/19 04:45:48;;;;;;;7.13;4.30;;;19.20;98.00;;;;;;5052626;28;20453;-69
2023/08/19 04:48:15;;;;;;;7.33;4.03;;;19.20;98.00;;;;;;5051538;28;20481;-69
2023/08/19 04:50:44;;;;;;;7.17;3.70;;;19.20;98.00;;;;;;5051506;28;20979;-69
2023/08/19 04:53:11;;;;;;;6.80;4.23;;;19.20;98.00;;;;;;5052608;28;20509;-69
2023/08/19 04:55:39;;;;;;;6.17;3.90;;;19.20;98.00;;;;;;5052175;28;20465;-69
2023/08/19 04:58:06;;;;;;;6.67;4.00;;;19.10;98.00;;;;;;5052173;28;20472;-69
2023/08/19 05:00:33;;;;;;;6.97;3.80;;;19.20;98.00;;;;;;5051455;28;20457;-69
2023/08/19 05:03:01;;;;;;;9.83;4.30;;;19.20;98.00;;;;;;5052668;28;20907;-69
2023/08/19 05:05:28;;;;;;;9.30;3.63;;;19.30;98.00;;;;;;5052819;28;20838;-69
2023/08/19 05:07:56;;;;;;;9.77;3.90;;;19.40;98.00;;;;;;5052727;28;20472;-69
2023/08/19 05:10:24;;;;;;;7.50;4.23;;;19.40;98.00;;;;;;5052561;28;20457;-69
2023/08/19 05:12:52;;;;;;;9.60;4.03;;;19.50;98.00;;;;;;5052544;28;20853;-69
2023/08/19 05:15:20;;;;;;;5.07;3.77;;;19.60;98.00;;;;;;5052151;28;20453;-69
2023/08/19 05:17:47;;;;;;;7.70;3.70;;;19.50;98.00;;;;;;5052124;28;20449;-69
2023/08/19 05:20:14;;;;;;;5.90;3.80;;;19.50;98.00;;;;;;5052073;28;20482;-69
2023/08/19 05:22:42;;;;;;;6.33;3.97;;;19.40;98.00;;;;;;5050922;28;20450;-69
2023/08/19 05:25:11;;;;;;;8.73;4.50;;;19.50;98.00;;;;;;5052040;28;20450;-69
2023/08/19 05:27:38;;;;;;;7.37;4.00;;;19.40;98.00;;;;;;5052182;28;20453;-69
2023/08/19 05:30:07;;;;;;;6.90;4.20;;;19.40;98.00;;;;;;5051865;28;20450;-69
2023/08/19 05:32:34;;;;;;;6.93;4.40;;;19.30;98.00;;;;;;5051924;28;20519;-69
2023/08/19 05:35:02;;;;;;;7.10;3.97;;;19.30;98.00;;;;;;5051899;28;20484;-70
2023/08/19 05:37:29;;;;;;;8.63;4.50;;;19.30;98.00;;;;;;5050610;28;20465;-69
2023/08/19 05:39:56;;;;;;;12.20;4.50;;;19.40;98.00;;;;;;5051859;28;20503;-69
2023/08/19 05:42:24;;;;;;;7.30;4.10;;;19.30;98.00;;;;;;5051817;28;20948;-69
2023/08/19 05:44:53;;;;;;;7.57;4.30;;;19.40;98.00;;;;;;5051964;28;20974;-69
2023/08/19 05:47:20;;;;;;;8.03;4.13;;;19.40;98.00;;;;;;5051560;28;21170;-69
2023/08/19 05:49:47;;;;;;;8.90;4.73;;;19.50;98.00;;;;;;5051724;28;20441;-69
2023/08/19 05:52:14;;;;;;;12.67;4.57;;;19.60;98.00;;;;;;5051599;28;20454;-67
2023/08/19 05:54:41;;;;;;;7.30;4.30;;;19.70;98.00;;;;;;5051531;28;20489;-67
2023/08/19 05:57:09;;;;;;;7.40;4.33;;;19.70;98.00;;;;;;5051374;28;20932;-67
2023/08/19 05:59:37;;;;;;;6.40;4.17;;;19.70;98.00;;;;;;5050352;28;20482;-67
2023/08/19 06:02:05;;;;;;;6.80;4.10;;;19.70;98.00;;;;;;5051609;28;20453;-67
2023/08/19 06:04:32;;;;;;;7.90;4.40;;;19.90;98.00;;;;;;5051477;28;20465;-68
2023/08/19 06:06:59;;;;;;;7.57;4.43;;;20.00;98.00;;;;;;5051159;28;20979;-68
2023/08/19 06:09:27;;;;;;;7.50;4.20;;;20.10;98.00;;;;;;5051230;28;20452;-67
2023/08/19 06:12:03;;;;;;;7.10;4.10;;;20.20;98.00;;;;;;5051176;28;20450;-67
2023/08/19 06:14:31;;;;;;;10.83;4.40;;;20.20;98.00;;;;;;5049891;28;20477;-67
2023/08/19 06:16:59;;;;;;;10.70;3.60;;;20.30;98.00;;;;;;5051064;28;20449;-68
2023/08/19 06:19:26;;;;;;;6.27;3.63;;;20.50;98.00;;;;;;5049878;28;20994;-69
2023/08/19 06:21:54;;;;;;;7.60;3.80;;;20.90;98.00;;;;;;5051395;28;20441;-70
2023/08/19 06:24:21;;;;;;;9.80;4.20;;;21.30;98.00;;;;;;5051567;28;20489;-69
2023/08/19 06:26:48;;;;;;;9.70;4.47;;;21.60;98.00;;;;;;5051587;28;20827;-69
2023/08/19 06:29:15;;;;;;;6.47;4.13;;;22.00;98.00;;;;;;5051500;28;20458;-69
2023/08/19 06:31:43;;;;;;;6.67;3.93;;;22.30;98.00;;;;;;5051492;28;21092;-69
2023/08/19 06:34:13;;;;;;;6.57;4.20;;;22.50;98.00;;;;;;5051373;28;20482;-70
2023/08/19 06:36:43;;;;;;;6.37;4.00;;;22.70;98.00;;;;;;5033903;28;20454;-69
2023/08/19 06:39:19;;;;;;;6.47;4.37;;;22.90;98.00;;;;;;5051294;28;20462;-69
2023/08/19 06:41:50;;;;;;;6.30;4.10;;;23.00;98.00;;;;;;5050511;28;20960;-69
2023/08/19 06:44:17;;;;;;;6.30;4.20;;;23.10;98.00;;;;;;5051503;28;20473;-69
2023/08/19 06:46:45;;;;;;;7.77;4.13;;;23.20;98.00;;;;;;5051441;28;21070;-69
2023/08/19 06:49:14;;;;;;;7.80;4.00;;;23.30;98.00;;;;;;5051300;28;20446;-69
2023/08/19 06:51:42;;;;;;;7.40;4.43;;;23.40;98.00;;;;;;5051631;28;20461;-69
2023/08/19 06:54:10;;;;;;;7.27;4.80;;;23.70;98.00;;;;;;5051248;28;20485;-69
2023/08/19 06:56:46;;;;;;;10.33;4.47;;;23.80;98.00;;;;;;5051805;28;20469;-69
2023/08/19 06:59:20;;;;;;;9.40;4.33;;;23.90;98.00;;;;;;5051413;28;20450;-68
2023/08/19 07:01:52;;;;;;;7.50;4.23;;;24.00;98.00;;;;;;5051529;28;20449;-69
2023/08/19 07:04:23;;;;;;;7.10;4.50;;;24.10;98.00;;;;;;5051155;28;20453;-69
2023/08/19 07:06:52;;;;;;;9.40;4.23;;;24.20;98.00;;;;;;5051146;28;20461;-69
2023/08/19 07:09:23;;;;;;;7.20;4.70;;;24.40;98.00;;;;;;5050933;28;20450;-69
2023/08/19 07:11:53;;;;;;;6.80;4.17;;;24.50;98.00;;;;;;5051278;28;20967;-68
2023/08/19 07:14:21;;;;;;;7.60;4.87;;;24.50;98.00;;;;;;5051010;28;21053;-69
2023/08/19 07:16:53;;;;;;;6.60;3.90;;;24.50;98.00;;;;;;5049695;28;20450;-69
2023/08/19 07:19:26;;;;;;;8.83;4.30;;;24.40;98.00;;;;;;5051371;28;20457;-69
2023/08/19 07:21:56;;;;;;;6.70;4.67;;;24.40;98.00;;;;;;5054501;28;20895;-69
2023/08/19 07:24:26;;;;;;;6.07;3.63;;;24.30;98.00;;;;;;5054317;28;20446;-69
2023/08/19 07:26:53;;;;;;;8.00;4.27;;;24.30;98.00;;;;;;5054327;28;20473;-69
2023/08/19 07:29:21;;;;;;;5.90;3.80;;;24.40;98.00;;;;;;5054608;28;20457;-69
2023/08/19 07:31:49;;;;;;;6.90;4.30;;;24.70;98.00;;;;;;5054619;28;20462;-69
2023/08/19 07:34:17;;;;;;;6.83;4.00;;;24.90;98.00;;;;;;5054164;28;20482;-68
2023/08/19 07:36:51;;;;;;;7.20;4.10;;;24.90;98.00;;;;;;5054518;28;20446;-69
2023/08/19 07:39:19;;;;;;;6.57;4.00;;;24.90;98.00;;;;;;5054565;28;20465;-68
2023/08/19 07:41:46;;;;;;;7.07;4.17;;;24.90;98.00;;;;;;5054559;28;20485;-69
2023/08/19 07:44:13;;;;;;;7.70;4.07;;;25.00;98.00;;;;;;5054492;28;20450;-69
2023/08/19 07:46:40;;;;;;;7.53;4.60;;;25.10;98.00;;;;;;5053430;28;20449;-69
2023/08/19 07:49:07;;;;;;;10.50;4.13;;;25.30;98.00;;;;;;5054407;28;20454;-69
2023/08/19 07:51:34;;;;;;;7.07;4.50;;;25.40;98.00;;;;;;5054677;28;20457;-69
2023/08/19 07:54:03;;;;;;;9.43;4.50;;;25.50;98.00;;;;;;5052766;28;20473;-69
2023/08/19 07:56:30;;;;;;;8.03;4.40;;;25.70;98.00;;;;;;5054203;28;20461;-67
2023/08/19 07:58:57;;;;;;;7.90;4.17;;;25.70;98.00;;;;;;5054099;28;20973;-67
2023/08/19 08:01:24;;;;;;;10.83;4.13;;;25.70;98.00;;;;;;5053977;28;20454;-67
2023/08/19 08:03:51;;;;;;;6.93;3.90;;;25.80;98.00;;;;;;5053930;28;20457;-68
2023/08/19 08:06:18;;;;;;;7.70;4.00;;;25.80;98.00;;;;;;5053809;28;20959;-68
2023/08/19 08:08:47;;;;;;;7.60;4.80;;;25.90;98.00;;;;;;5053603;28;20461;-67
2023/08/19 08:11:16;;;;;;;9.33;4.27;;;26.00;98.00;;;;;;5053681;28;20503;-67
2023/08/19 08:13:44;;;;;;;10.97;4.90;;;26.10;98.00;;;;;;5052086;28;20493;-67
2023/08/19 08:16:11;;;;;;;8.57;4.20;;;26.30;98.00;;;;;;5051462;28;20449;-66
2023/08/19 08:18:38;;;;;;;7.90;3.87;;;26.30;98.00;;;;;;5053593;28;20460;-66
2023/08/19 08:21:05;;;;;;;6.70;4.13;;;26.40;98.00;;;;;;5053640;28;20800;-67
2023/08/19 08:23:32;;;;;;;6.40;4.10;;;26.50;98.00;;;;;;5052121;28;20446;-67
2023/08/19 08:25:59;;;;;;;8.93;4.80;;;26.60;98.00;;;;;;5052960;28;20940;-67
2023/08/19 08:28:28;;;;;;;8.47;4.43;;;26.70;98.00;;;;;;5053626;28;20450;-67
2023/08/19 08:30:55;;;;;;;6.47;4.07;;;26.80;98.00;;;;;;5052830;28;20939;-67
2023/08/19 08:33:22;;;;;;;8.13;4.70;;;26.90;98.00;;;;;;5051838;28;21005;-67
2023/08/19 08:35:50;;;;;;;7.60;4.60;;;27.00;98.00;;;;;;5053327;28;20481;-67
2023/08/19 08:38:17;;;;;;;9.73;4.90;;;27.10;98.00;;;;;;5053115;28;20940;-67
2023/08/19 08:40:44;;;;;;;9.70;4.87;;;27.20;98.00;;;;;;5053250;28;20457;-67
2023/08/19 08:43:11;;;;;;;8.53;4.80;;;27.40;98.00;;;;;;5053436;28;20454;-67
2023/08/19 08:45:41;;;;;;;6.63;4.40;;;27.50;98.00;;;;;;5053528;28;20489;-67
2023/08/19 08:48:10;;;;;;;7.97;4.57;;;27.60;98.00;;;;;;5053264;28;20791;-67
2023/08/19 08:50:38;;;;;;;11.70;4.57;;;27.70;98.00;;;;;;5053127;28;20528;-67
2023/08/19 08:53:05;;;;;;;7.93;4.43;;;27.80;98.00;;;;;;5052714;28;21112;-67
2023/08/19 08:55:33;;;;;;;9.10;4.50;;;28.00;98.00;;;;;;5052680;28;20492;-67
2023/08/19 08:58:03;;;;;;;8.97;4.83;;;28.20;98.00;;;;;;5052735;28;20939;-67
2023/08/19 09:00:30;;;;;;;9.18;5.13;;;28.30;98.00;;;;;;5051782;28;20814;-67
2023/08/19 09:02:59;;;;;;;8.40;5.00;;;28.40;98.00;;;;;;5052509;28;20656;-67
2023/08/19 09:05:29;;;;;;;8.90;4.90;;;28.50;98.00;;;;;;5052457;28;20461;-66
2023/08/19 09:07:58;;;;;;;6.80;4.47;;;28.70;98.00;;;;;;5052495;28;20454;-67
2023/08/19 09:10:30;;;;;;;10.40;5.03;;;28.90;98.00;;;;;;5051258;28;20456;-67
2023/08/19 09:12:59;;;;;;;7.10;4.47;;;29.00;98.00;;;;;;5050767;28;20833;-67
2023/08/19 09:15:28;;;;;;;8.33;4.83;;;29.00;98.00;;;;;;5051507;28;20572;-67
2023/08/19 09:17:58;;;;;;;7.23;4.70;;;29.10;98.00;;;;;;5052173;28;20954;-66
2023/08/19 09:20:25;;;;;;;7.80;4.83;;;29.10;98.00;;;;;;5052753;28;20528;-67
2023/08/19 09:22:52;;;;;;;7.47;4.33;;;29.30;98.00;;;;;;5052494;28;20453;-66
2023/08/19 09:25:20;;;;;;;10.37;4.63;;;29.40;98.00;;;;;;5052476;28;20935;-67
2023/08/19 09:27:48;;;;;;;8.73;4.60;;;29.50;98.00;;;;;;5052552;28;21079;-66
2023/08/19 09:30:16;;;;;;;11.30;4.70;;;29.70;98.00;;;;;;5052307;28;20523;-66
2023/08/19 09:32:45;;;;;;;8.07;5.10;;;29.80;98.00;;;;;;5050618;28;20785;-68
2023/08/19 09:35:14;;;;;;;7.27;4.53;;;29.90;98.00;;;;;;5051515;28;20474;-67
2023/08/19 09:37:42;;;;;;;8.30;5.33;;;30.10;98.00;;;;;;5051453;28;20461;-67
2023/08/19 09:40:15;;;;;;;7.50;4.97;;;30.20;98.00;;;;;;5051673;28;20482;-67
2023/08/19 09:42:47;;;;;;;9.13;4.90;;;30.30;98.00;;;;;;5051286;28;20446;-67
2023/08/19 09:45:18;;;;;;;11.93;5.20;;;30.50;98.00;;;;;;5051439;28;20453;-67
2023/08/19 09:47:51;;;;;;;7.60;5.13;;;30.70;98.00;;;;;;5051836;28;20754;-67
2023/08/19 09:50:21;;;;;;;8.20;4.60;;;30.80;98.00;;;;;;5051561;28;20994;-67
2023/08/19 09:52:55;;;;;;;8.03;4.77;;;31.00;98.00;;;;;;5051424;28;20454;-67
2023/08/19 09:55:24;;;;;;;7.67;4.90;;;31.10;98.00;;;;;;5051079;28;20520;-67
2023/08/19 09:57:51;;;;;;;9.30;5.27;;;31.20;98.00;;;;;;5050042;28;20458;-67
2023/08/19 10:00:18;;;;;;;8.97;4.87;;;31.40;98.00;;;;;;5051094;28;20820;-67
2023/08/19 10:02:45;;;;;;;7.87;5.00;;;31.50;98.00;;;;;;5051132;28;20538;-67
2023/08/19 10:05:14;;;;;;;13.23;5.20;;;31.70;98.00;;;;;;5051197;28;20974;-67
2023/08/19 10:07:47;;;;;;;9.53;5.60;;;31.90;97.90;;;;;;5051070;28;20453;-67
2023/08/19 10:10:15;;;;;;;9.13;5.40;;;32.00;96.40;;;;;;5051144;28;20450;-67
2023/08/19 10:12:44;;;;;;;7.13;5.30;;;32.10;96.70;;;;;;5051062;28;20448;-68
2023/08/19 10:15:14;;;;;;;7.80;5.43;;;32.20;96.10;;;;;;5050865;28;20477;-67
2023/08/19 10:17:48;;;;;;;8.30;4.97;;;32.30;98.00;;;;;;5033330;28;20796;-67
2023/08/19 10:20:18;;;;;;;7.23;5.37;;;32.40;95.20;;;;;;5051094;28;20515;-67
2023/08/19 10:22:50;;;;;;;7.90;5.10;;;32.60;94.90;;;;;;5051125;28;20891;-67
2023/08/19 10:25:19;;;;;;;8.07;5.00;;;32.70;94.00;;;;;;5051247;28;20465;-67
2023/08/19 10:27:46;;;;;;;9.30;5.70;;;32.90;96.20;;;;;;5051125;28;20457;-67
2023/08/19 10:30:31;;;;;;;9.43;4.97;;;33.00;95.50;;;;;;5050968;28;20499;-68
2023/08/19 10:33:12;;;;;;;6.97;5.00;;;33.20;96.70;;;;;;5050997;28;20465;-68
2023/08/19 10:35:58;;;;;;;9.17;5.20;;;33.40;95.20;;;;;;5051119;28;20481;-68
2023/08/19 10:38:40;;;;;;;7.53;4.90;;;33.60;93.50;;;;;;5050939;28;20500;-67
2023/08/19 10:41:17;;;;;;;8.20;5.00;;;33.80;88.80;;;;;;5050959;28;20457;-68
2023/08/19 10:43:56;;;;;;;11.23;4.70;;;33.90;89.60;;;;;;5050943;28;20499;-68
2023/08/19 10:46:28;;;;;;;7.30;4.47;;;34.00;88.50;;;;;;5050683;28;20477;-68
2023/08/19 10:48:55;;;;;;;7.50;4.80;;;34.10;89.60;;;;;;5050706;28;20461;-67
2023/08/19 10:51:46;;;;;;;9.40;4.30;;;34.20;87.30;;;;;;5049391;28;20453;-67
2023/08/19 10:54:15;;;;;;;6.23;4.30;;;34.30;85.60;;;;;;5051088;28;20493;-67
2023/08/19 10:56:53;;;;;;;7.60;4.80;;;34.30;83.50;;;;;;5054698;28;20485;-68
2023/08/19 10:59:21;;;;;;;9.13;4.50;;;34.30;84.20;;;;;;5054477;28;20449;-68
2023/08/19 11:01:48;;;;;;;5.87;4.37;;;34.50;82.10;;;;;;5054552;28;20461;-68
2023/08/19 11:04:16;;;;;;;7.03;4.40;;;34.60;83.60;;;;;;5054308;28;20503;-68
2023/08/19 11:06:43;;;;;;;5.40;4.20;;;34.70;80.00;;;;;;5054457;28;20866;-69
2023/08/19 11:09:10;;;;;;;6.57;4.13;;;34.80;80.70;;;;;;5054250;28;20453;-68
2023/08/19 11:11:39;;;;;;;9.30;4.47;;;34.90;80.90;;;;;;5054307;28;20966;-68
2023/08/19 11:14:07;;;;;;;6.07;3.87;;;35.00;81.00;;;;;;5054117;28;20464;-69
2023/08/19 11:16:34;;;;;;;10.33;4.47;;;35.10;80.00;;;;;;5054407;28;21006;-69
2023/08/19 11:19:02;;;;;;;6.90;4.70;;;35.20;80.60;;;;;;5054205;28;20461;-68
2023/08/19 11:21:29;;;;;;;8.30;4.70;;;35.30;79.40;;;;;;5054032;28;20449;-69
2023/08/19 11:23:56;;;;;;;7.20;4.30;;;35.30;80.40;;;;;;5054189;28;20551;-68
2023/08/19 11:26:24;;;;;;;6.87;4.33;;;35.30;79.20;;;;;;5054103;28;20519;-67
2023/08/19 11:28:53;;;;;;;7.33;4.00;;;35.30;80.20;;;;;;5054020;28;20477;-68
2023/08/19 11:31:21;;;;;;;7.27;4.20;;;35.50;81.00;;;;;;5053008;28;20460;-68
2023/08/19 11:33:49;;;;;;;7.20;4.10;;;35.70;81.40;;;;;;5054102;28;20494;-68
2023/08/19 11:36:16;;;;;;;6.80;4.03;;;36.00;78.00;;;;;;5053793;28;20524;-67
2023/08/19 11:38:44;;;;;;;5.70;3.83;;;36.20;76.80;;;;;;5053564;28;20469;-67
2023/08/19 11:41:12;;;;;;;6.10;4.20;;;36.30;73.80;;;;;;5053661;28;21004;-67
2023/08/19 11:43:45;;;;;;;10.70;4.17;;;36.40;71.40;;;;;;5053637;28;20449;-67
2023/08/19 11:46:14;;;;;;;5.67;4.00;;;36.50;73.90;;;;;;5053572;28;20935;-67
2023/08/19 11:48:41;;;;;;;6.00;4.00;;;36.60;73.10;;;;;;5053616;28;20449;-67
2023/08/19 11:51:14;;;;;;;7.40;4.40;;;36.90;72.50;;;;;;5053584;28;20457;-67
2023/08/19 11:53:48;;;;;;;11.33;4.77;;;37.00;75.50;;;;;;5053471;28;20477;-67
2023/08/19 11:56:16;;;;;;;6.27;4.07;;;37.00;77.20;;;;;;5052252;28;20489;-67
2023/08/19 11:58:48;;;;;;;6.10;4.63;;;37.00;77.20;;;;;;5053456;28;20461;-67
2023/08/19 12:01:17;;;;;;;8.27;4.53;;;37.10;75.10;;;;;;5053387;28;20497;-67
2023/08/19 12:03:45;;;;;;;6.10;4.37;;;37.00;76.10;;;;;;5053291;28;20458;-67
2023/08/19 12:06:13;;;;;;;8.13;4.60;;;37.00;74.00;;;;;;5052694;28;20449;-67
2023/08/19 12:08:41;;;;;;;6.60;4.30;;;37.20;73.60;;;;;;5053200;28;20458;-67
2023/08/19 12:11:08;;;;;;;6.00;4.30;;;37.30;73.80;;;;;;5053204;28;20456;-67
2023/08/19 12:13:35;;;;;;;7.17;4.13;;;37.20;71.40;;;;;;5053365;28;20445;-67
2023/08/19 12:16:03;;;;;;;6.60;4.07;;;37.10;73.70;;;;;;5051835;28;20894;-67
2023/08/19 12:18:34;;;;;;;6.47;4.30;;;37.10;73.20;;;;;;5053051;28;20842;-66
2023/08/19 12:21:03;;;;;;;7.33;4.63;;;37.10;72.10;;;;;;5053053;28;20481;-67
2023/08/19 12:23:30;;;;;;;8.70;4.83;;;37.20;72.00;;;;;;5053035;28;20449;-67
2023/08/19 12:26:05;;;;;;;8.33;4.90;;;37.30;72.50;;;;;;5052615;28;20489;-67
2023/08/19 12:28:33;;;;;;;7.20;4.47;;;37.30;72.80;;;;;;5052972;28;20462;-67
2023/08/19 12:31:00;;;;;;;9.20;4.57;;;37.30;72.80;;;;;;5052939;28;20485;-68
2023/08/19 12:33:28;;;;;;;9.63;4.70;;;37.10;74.80;;;;;;5052720;28;20967;-67
2023/08/19 12:35:56;;;;;;;7.93;4.40;;;37.00;74.00;;;;;;5052826;28;20645;-67
2023/08/19 12:38:23;;;;;;;7.43;4.30;;;37.10;73.50;;;;;;5052443;28;20967;-68
2023/08/19 12:40:51;;;;;;;7.17;4.20;;;37.20;73.80;;;;;;5052749;28;20450;-67
2023/08/19 12:43:18;;;;;;;7.10;5.37;;;37.30;75.30;;;;;;5052637;28;20873;-68
2023/08/19 12:45:48;;;;;;;7.30;4.40;;;37.40;78.60;;;;;;5052438;28;20461;-67
2023/08/19 12:48:15;;;;;;;8.30;4.50;;;37.60;73.50;;;;;;5052449;28;20449;-68
2023/08/19 12:50:42;;;;;;;5.40;3.90;;;37.50;72.70;;;;;;5052683;28;20914;-67
2023/08/19 12:53:11;;;;;;;7.10;4.30;;;37.50;73.60;;;;;;5052311;28;20444;-67